createdAt,value
2018-11-12T00:00:45.640Z,5.60
2018-11-12T00:03:14.983Z,5.60
2018-11-12T00:05:44.261Z,5.50
2018-11-12T00:08:13.598Z,5.50
2018-11-12T00:10:42.949Z,5.40
2018-11-12T00:13:12.283Z,5.40
2018-11-12T00:15:41.610Z,5.50
2018-11-12T00:18:10.952Z,5.40
2018-11-12T00:20:40.359Z,5.50
2018-11-12T00:23:09.761Z,5.40
2018-11-12T00:25:39.089Z,5.60
2018-11-12T00:28:08.503Z,5.60
2018-11-12T00:30:37.862Z,5.50
2018-11-12T00:33:07.220Z,5.40
2018-11-12T00:35:36.637Z,5.40
2018-11-12T00:38:06.452Z,5.40
2018-11-12T00:40:35.804Z,5.40
2018-11-12T00:43:05.241Z,5.30
2018-11-12T00:45:34.695Z,5.20
2018-11-12T00:48:04.114Z,5.10
2018-11-12T00:50:33.551Z,5.10
2018-11-12T00:53:02.911Z,5.10
2018-11-12T00:55:32.157Z,5.00
2018-11-12T00:58:01.493Z,5.00
2018-11-12T01:00:31.803Z,5.10
2018-11-12T01:03:01.140Z,5.20
2018-11-12T01:05:30.472Z,5.10
2018-11-12T01:07:59.799Z,5.00
2018-11-12T01:10:29.189Z,4.90
2018-11-12T01:12:58.546Z,4.80
2018-11-12T01:15:27.905Z,4.70
2018-11-12T01:17:57.292Z,4.60
2018-11-12T01:20:26.652Z,4.60
2018-11-12T01:22:55.950Z,4.50
2018-11-12T01:25:25.344Z,4.50
2018-11-12T01:27:54.696Z,4.60
2018-11-12T01:30:24.000Z,4.60
2018-11-12T01:32:53.365Z,4.70
2018-11-12T01:35:22.798Z,4.60
2018-11-12T01:37:52.099Z,4.50
2018-11-12T01:40:21.539Z,4.50
2018-11-12T01:42:50.855Z,4.60
2018-11-12T01:45:21.043Z,4.50
2018-11-12T01:47:51.189Z,4.50
2018-11-12T01:50:20.829Z,4.50
2018-11-12T01:52:50.425Z,4.40
2018-11-12T01:55:20.568Z,4.40
2018-11-12T01:57:49.928Z,4.30
2018-11-12T02:00:20.650Z,4.20
2018-11-12T02:02:51.112Z,4.20
2018-11-12T02:05:20.827Z,4.30
2018-11-12T02:07:50.110Z,4.30
2018-11-12T02:10:20.044Z,4.30
2018-11-12T02:12:49.471Z,4.10
2018-11-12T02:15:20.168Z,4.10
2018-11-12T02:17:50.197Z,4.10
2018-11-12T02:20:20.711Z,4.10
2018-11-12T02:22:50.650Z,4.10
2018-11-12T02:25:20.700Z,4.20
2018-11-12T02:27:50.096Z,4.20
2018-11-12T02:30:24.764Z,4.20
2018-11-12T02:32:54.079Z,4.10
2018-11-12T02:35:23.483Z,4.00
2018-11-12T02:37:52.904Z,3.90
2018-11-12T02:40:22.363Z,4.00
2018-11-12T02:42:51.670Z,4.00
2018-11-12T02:45:20.939Z,3.90
2018-11-12T02:47:50.420Z,4.00
2018-11-12T02:50:19.806Z,4.10
2018-11-12T02:52:49.167Z,4.10
2018-11-12T02:55:18.492Z,4.00
2018-11-12T02:57:48.408Z,4.00
2018-11-12T03:00:20.138Z,4.00
2018-11-12T03:02:50.609Z,3.90
2018-11-12T03:05:19.944Z,3.80
2018-11-12T03:07:49.211Z,3.70
2018-11-12T03:10:24.864Z,3.70
2018-11-12T03:12:54.223Z,3.70
2018-11-12T03:15:23.728Z,3.80
2018-11-12T03:17:53.455Z,3.80
2018-11-12T03:20:23.916Z,3.70
2018-11-12T03:22:53.220Z,3.60
2018-11-12T03:25:23.068Z,3.50
2018-11-12T03:27:52.406Z,3.50
2018-11-12T03:30:22.857Z,3.60
2018-11-12T03:32:53.063Z,3.60
2018-11-12T03:35:22.580Z,3.60
2018-11-12T03:37:52.383Z,3.50
2018-11-12T03:40:23.564Z,3.40
2018-11-12T03:42:53.331Z,3.40
2018-11-12T03:45:24.404Z,3.30
2018-11-12T03:47:53.894Z,3.20
2018-11-12T03:50:24.490Z,3.20
2018-11-12T03:52:53.883Z,3.30
2018-11-12T03:55:24.124Z,3.40
2018-11-12T03:57:53.447Z,3.30
2018-11-12T04:00:28.049Z,3.20
2018-11-12T04:02:57.413Z,3.10
2018-11-12T04:05:27.024Z,3.10
2018-11-12T04:07:56.641Z,3.20
2018-11-12T04:10:25.946Z,3.20
2018-11-12T04:12:55.296Z,3.20
2018-11-12T04:15:25.663Z,3.10
2018-11-12T04:17:55.169Z,3.10
2018-11-12T04:20:25.268Z,3.00
2018-11-12T04:22:59.522Z,3.00
2018-11-12T04:25:28.858Z,3.00
2018-11-12T04:27:58.223Z,2.90
2018-11-12T04:30:27.664Z,2.90
2018-11-12T04:32:57.223Z,3.00
2018-11-12T04:35:26.770Z,3.00
2018-11-12T04:37:56.079Z,2.90
2018-11-12T04:40:25.490Z,2.90
2018-11-12T04:42:54.895Z,2.90
2018-11-12T04:45:25.172Z,2.90
2018-11-12T04:47:55.165Z,2.90
2018-11-12T04:50:25.836Z,2.90
2018-11-12T04:52:55.504Z,2.90
2018-11-12T04:55:25.556Z,3.00
2018-11-12T04:57:54.776Z,3.10
2018-11-12T05:00:27.469Z,3.20
2018-11-12T05:02:57.075Z,3.20
2018-11-12T05:05:27.618Z,3.30
2018-11-12T05:07:56.907Z,3.20
2018-11-12T05:10:27.137Z,3.30
2018-11-12T05:12:56.767Z,3.20
2018-11-12T05:15:26.529Z,3.20
2018-11-12T05:17:55.945Z,3.30
2018-11-12T05:20:28.501Z,3.40
2018-11-12T05:22:58.009Z,3.40
2018-11-12T05:25:27.389Z,3.30
2018-11-12T05:27:56.767Z,3.40
2018-11-12T05:30:27.295Z,3.40
2018-11-12T05:32:56.952Z,3.40
2018-11-12T05:35:28.339Z,3.30
2018-11-12T05:37:57.825Z,3.20
2018-11-12T05:40:28.302Z,3.30
2018-11-12T05:42:57.876Z,3.30
2018-11-12T05:45:28.528Z,3.20
2018-11-12T05:47:57.840Z,3.20
2018-11-12T05:50:31.227Z,3.10
2018-11-12T05:53:02.814Z,3.20
2018-11-12T05:55:33.022Z,3.10
2018-11-12T05:58:02.568Z,3.10
2018-11-12T06:00:36.089Z,3.10
2018-11-12T06:03:05.718Z,3.10
2018-11-12T06:05:35.676Z,3.20
2018-11-12T06:08:05.142Z,3.20
2018-11-12T06:10:35.109Z,3.20
2018-11-12T06:13:04.613Z,3.10
2018-11-12T06:15:34.022Z,3.00
2018-11-12T06:18:03.378Z,3.00
2018-11-12T06:20:34.755Z,3.00
2018-11-12T06:23:04.010Z,3.00
2018-11-12T06:25:34.781Z,3.00
2018-11-12T06:28:04.360Z,3.10
2018-11-12T06:30:35.073Z,3.20
2018-11-12T06:33:04.448Z,3.20
2018-11-12T06:35:33.745Z,3.30
2018-11-12T06:38:03.088Z,3.30
2018-11-12T06:40:32.402Z,3.30
2018-11-12T06:43:01.813Z,3.30
2018-11-12T06:45:31.832Z,3.30
2018-11-12T06:48:01.644Z,3.30
2018-11-12T06:50:33.086Z,3.40
2018-11-12T06:53:03.168Z,3.40
2018-11-12T06:55:32.833Z,3.50
2018-11-12T06:58:02.228Z,3.70
2018-11-12T07:00:33.702Z,4.00
2018-11-12T07:03:03.077Z,4.20
2018-11-12T07:05:33.058Z,4.60
2018-11-12T07:08:02.271Z,4.90
2018-11-12T07:10:31.575Z,5.20
2018-11-12T07:13:01.819Z,5.60
2018-11-12T07:15:31.275Z,6.00
2018-11-12T07:18:00.655Z,6.30
2018-11-12T07:20:30.456Z,6.60
2018-11-12T07:22:59.829Z,6.80
2018-11-12T07:25:30.292Z,7.20
2018-11-12T07:27:59.869Z,7.40
2018-11-12T07:30:29.731Z,7.40
2018-11-12T07:32:59.857Z,7.70
2018-11-12T07:35:29.192Z,8.10
2018-11-12T07:37:59.536Z,8.40
2018-11-12T07:40:28.931Z,8.70
2018-11-12T07:42:58.267Z,8.90
2018-11-12T07:45:28.914Z,9.00
2018-11-12T07:47:59.104Z,8.90
2018-11-12T07:50:29.811Z,8.60
2018-11-12T07:52:59.063Z,8.50
2018-11-12T07:55:29.282Z,8.40
2018-11-12T07:57:59.469Z,8.20
2018-11-12T08:00:32.334Z,8.10
2018-11-12T08:03:07.956Z,8.10
2018-11-12T08:05:37.852Z,8.20
2018-11-12T08:08:07.760Z,8.30
2018-11-12T08:10:37.072Z,8.50
2018-11-12T08:13:06.843Z,8.70
2018-11-12T08:15:36.260Z,9.00
2018-11-12T08:18:05.671Z,9.10
2018-11-12T08:20:35.035Z,9.20
2018-11-12T08:23:04.353Z,9.20
2018-11-12T08:25:33.754Z,9.30
2018-11-12T08:28:03.115Z,9.40
2018-11-12T08:30:32.712Z,9.50
2018-11-12T08:33:02.322Z,9.60
2018-11-12T08:35:31.539Z,9.70
2018-11-12T08:38:00.956Z,9.90
2018-11-12T08:40:30.904Z,10.00
2018-11-12T08:43:00.244Z,10.10
2018-11-12T08:45:29.600Z,10.20
2018-11-12T08:47:59.056Z,10.30
2018-11-12T08:50:28.828Z,10.50
2018-11-12T08:52:58.718Z,10.50
2018-11-12T08:55:29.648Z,10.60
2018-11-12T08:58:01.051Z,10.70
2018-11-12T09:00:30.566Z,10.80
2018-11-12T09:03:00.009Z,10.90
2018-11-12T09:05:30.528Z,11.00
2018-11-12T09:08:02.142Z,11.10
2018-11-12T09:10:33.025Z,11.20
2018-11-12T09:13:02.395Z,11.30
2018-11-12T09:15:31.905Z,11.40
2018-11-12T09:18:01.633Z,11.50
2018-11-12T09:20:30.948Z,11.50
2018-11-12T09:23:00.288Z,11.70
2018-11-12T09:25:29.664Z,11.80
2018-11-12T09:27:59.050Z,11.90
2018-11-12T09:30:29.505Z,12.00
2018-11-12T09:32:59.025Z,12.20
2018-11-12T09:35:29.541Z,12.30
2018-11-12T09:38:00.196Z,12.40
2018-11-12T09:40:35.029Z,12.50
2018-11-12T09:43:04.653Z,12.60
2018-11-12T09:45:34.278Z,12.60
2018-11-12T09:48:03.588Z,12.70
2018-11-12T09:50:32.944Z,12.70
2018-11-12T09:53:03.127Z,12.70
2018-11-12T09:55:33.519Z,12.90
2018-11-12T09:58:05.252Z,13.30
2018-11-12T10:00:34.813Z,13.80
2018-11-12T10:03:05.075Z,14.40
2018-11-12T10:05:35.221Z,14.80
2018-11-12T10:08:15.212Z,15.00
2018-11-12T10:10:48.796Z,14.70
2018-11-12T10:13:21.414Z,14.50
2018-11-12T10:15:50.272Z,14.40
2018-11-12T10:18:17.401Z,14.20
2018-11-12T10:20:46.803Z,14.10
2018-11-12T10:23:16.358Z,13.90
2018-11-12T10:25:45.691Z,13.90
2018-11-12T10:28:15.400Z,13.70
2018-11-12T10:30:44.789Z,13.60
2018-11-12T10:33:14.178Z,13.40
2018-11-12T10:35:43.643Z,13.30
2018-11-12T10:38:13.085Z,13.40
2018-11-12T10:40:42.422Z,13.30
2018-11-12T10:43:11.869Z,13.20
2018-11-12T10:45:41.271Z,13.30
2018-11-12T10:48:10.747Z,13.30
2018-11-12T10:50:39.968Z,13.40
2018-11-12T10:53:10.034Z,13.40
2018-11-12T10:55:39.563Z,13.60
2018-11-12T10:58:08.764Z,13.70
2018-11-12T11:00:43.111Z,13.80
2018-11-12T11:03:18.321Z,14.00
2018-11-12T11:05:49.340Z,14.10
2018-11-12T11:08:18.669Z,14.10
2018-11-12T11:10:48.032Z,14.20
2018-11-12T11:13:17.579Z,14.10
2018-11-12T11:15:46.913Z,14.10
2018-11-12T11:18:16.267Z,14.10
2018-11-12T11:20:45.561Z,14.10
2018-11-12T11:23:14.969Z,14.20
2018-11-12T11:25:44.393Z,14.20
2018-11-12T11:28:14.728Z,14.20
2018-11-12T11:30:44.136Z,14.30
2018-11-12T11:33:13.532Z,14.30
2018-11-12T11:35:42.821Z,14.40
2018-11-12T11:38:12.269Z,14.50
2018-11-12T11:40:41.694Z,14.90
2018-11-12T11:43:11.035Z,15.40
2018-11-12T11:45:40.376Z,15.60
2018-11-12T11:48:09.708Z,15.70
2018-11-12T11:50:39.170Z,15.80
2018-11-12T11:53:08.587Z,15.90
2018-11-12T11:55:38.594Z,16.10
2018-11-12T11:58:07.979Z,16.30
2018-11-12T12:00:37.236Z,16.80
2018-11-12T12:03:07.501Z,17.30
2018-11-12T12:05:36.729Z,17.80
2018-11-12T12:08:06.364Z,18.10
2018-11-12T12:10:35.662Z,18.20
2018-11-12T12:13:05.168Z,18.20
2018-11-12T12:15:34.477Z,18.10
2018-11-12T12:18:03.806Z,18.10
2018-11-12T12:20:33.936Z,17.90
2018-11-12T12:23:03.292Z,17.80
2018-11-12T12:25:32.829Z,17.60
2018-11-12T12:28:02.111Z,17.80
2018-11-12T12:30:32.409Z,18.00
2018-11-12T12:33:01.772Z,17.80
2018-11-12T12:35:31.169Z,17.30
2018-11-12T12:38:00.451Z,16.80
2018-11-12T12:40:29.751Z,16.20
2018-11-12T12:42:59.135Z,16.00
2018-11-12T12:45:28.642Z,15.90
2018-11-12T12:47:58.446Z,15.80
2018-11-12T12:50:27.755Z,15.80
2018-11-12T12:52:57.666Z,15.80
2018-11-12T12:55:27.017Z,15.90
2018-11-12T12:57:56.393Z,16.00
2018-11-12T13:00:26.952Z,16.00
2018-11-12T13:02:56.759Z,16.00
2018-11-12T13:05:26.140Z,16.00
2018-11-12T13:07:55.471Z,16.00
2018-11-12T13:10:25.314Z,15.90
2018-11-12T13:12:54.683Z,15.90
2018-11-12T13:15:23.932Z,15.90
2018-11-12T13:17:53.471Z,15.90
2018-11-12T13:20:24.144Z,15.90
2018-11-12T13:22:53.544Z,15.90
2018-11-12T13:25:22.917Z,15.80
2018-11-12T13:27:52.217Z,15.70
2018-11-12T13:30:23.657Z,15.60
2018-11-12T13:32:53.253Z,15.50
2018-11-12T13:35:24.110Z,15.40
2018-11-12T13:37:53.427Z,15.40
2018-11-12T13:40:26.016Z,15.30
2018-11-12T13:42:56.871Z,15.30
2018-11-12T13:45:27.137Z,15.30
2018-11-12T13:47:57.595Z,15.30
2018-11-12T13:50:28.024Z,15.30
2018-11-12T13:52:58.103Z,15.30
2018-11-12T13:55:27.403Z,15.30
2018-11-12T13:57:56.801Z,15.30
2018-11-12T14:00:27.518Z,15.30
2018-11-12T14:02:57.493Z,15.30
2018-11-12T14:05:27.589Z,15.30
2018-11-12T14:07:56.987Z,15.40
2018-11-12T14:10:28.862Z,15.40
2018-11-12T14:12:58.940Z,15.30
2018-11-12T14:15:29.593Z,15.30
2018-11-12T14:17:59.811Z,15.30
2018-11-12T14:20:29.463Z,15.20
2018-11-12T14:23:01.080Z,15.10
2018-11-12T14:25:30.880Z,15.00
2018-11-12T14:28:01.617Z,15.00
2018-11-12T14:30:32.167Z,14.90
2018-11-12T14:33:01.598Z,14.90
2018-11-12T14:35:30.987Z,15.00
2018-11-12T14:38:00.400Z,15.10
2018-11-12T14:40:29.681Z,14.90
2018-11-12T14:42:59.048Z,14.70
2018-11-12T14:45:28.423Z,14.50
2018-11-12T14:47:57.715Z,14.30
2018-11-12T14:50:27.090Z,14.10
2018-11-12T14:52:56.420Z,14.00
2018-11-12T14:55:25.867Z,13.80
2018-11-12T14:57:55.302Z,13.70
2018-11-12T15:00:26.081Z,13.50
2018-11-12T15:02:56.034Z,13.40
2018-11-12T15:05:26.196Z,13.30
2018-11-12T15:07:55.558Z,13.20
2018-11-12T15:10:24.860Z,13.20
2018-11-12T15:12:54.280Z,13.00
2018-11-12T15:15:25.540Z,12.80
2018-11-12T15:17:55.007Z,12.70
2018-11-12T15:20:24.383Z,12.60
2018-11-12T15:22:53.892Z,12.50
2018-11-12T15:25:24.575Z,12.40
2018-11-12T15:27:53.992Z,12.40
2018-11-12T15:30:24.526Z,12.30
2018-11-12T15:32:55.903Z,12.20
2018-11-12T15:35:25.472Z,12.20
2018-11-12T15:37:54.767Z,12.10
2018-11-12T15:40:24.261Z,12.00
2018-11-12T15:42:53.681Z,11.90
2018-11-12T15:45:24.451Z,11.80
2018-11-12T15:47:53.960Z,11.60
2018-11-12T15:50:28.607Z,11.60
2018-11-12T15:52:58.120Z,11.50
2018-11-12T15:55:27.552Z,11.30
2018-11-12T15:57:57.207Z,11.20
2018-11-12T16:00:26.630Z,11.10
2018-11-12T16:02:55.896Z,11.00
2018-11-12T16:05:25.276Z,10.90
2018-11-12T16:07:54.620Z,10.80
2018-11-12T16:10:24.139Z,10.70
2018-11-12T16:12:53.571Z,10.60
2018-11-12T16:15:23.656Z,10.60
2018-11-12T16:17:53.248Z,10.60
2018-11-12T16:20:25.167Z,10.50
2018-11-12T16:22:54.962Z,10.40
2018-11-12T16:25:24.798Z,10.30
2018-11-12T16:27:54.203Z,10.20
2018-11-12T16:30:23.579Z,10.10
2018-11-12T16:32:52.991Z,10.00
2018-11-12T16:35:23.543Z,9.90
2018-11-12T16:37:53.692Z,9.80
2018-11-12T16:40:23.134Z,9.70
2018-11-12T16:42:52.509Z,9.60
2018-11-12T16:45:22.018Z,9.50
2018-11-12T16:47:51.270Z,9.50
2018-11-12T16:50:20.712Z,9.40
2018-11-12T16:52:50.143Z,9.40
2018-11-12T16:55:20.884Z,9.30
2018-11-12T16:57:50.736Z,9.30
2018-11-12T17:00:21.410Z,9.30
2018-11-12T17:02:50.871Z,9.20
2018-11-12T17:05:21.392Z,9.20
2018-11-12T17:07:50.734Z,9.20
2018-11-12T17:10:21.481Z,9.10
2018-11-12T17:12:50.940Z,9.00
2018-11-12T17:15:20.440Z,9.00
2018-11-12T17:17:50.128Z,8.90
2018-11-12T17:20:20.654Z,8.90
2018-11-12T17:22:50.034Z,8.80
2018-11-12T17:25:19.793Z,8.70
2018-11-12T17:27:49.407Z,8.70
2018-11-12T17:30:20.259Z,8.70
2018-11-12T17:32:50.090Z,8.60
2018-11-12T17:35:20.627Z,8.50
2018-11-12T17:37:50.127Z,8.50
2018-11-12T17:40:20.815Z,8.40
2018-11-12T17:42:51.829Z,8.30
2018-11-12T17:45:22.552Z,8.30
2018-11-12T17:47:52.912Z,8.20
2018-11-12T17:50:22.247Z,8.20
2018-11-12T17:52:51.680Z,8.10
2018-11-12T17:55:21.162Z,8.10
2018-11-12T17:57:50.555Z,8.00
2018-11-12T18:00:23.370Z,7.90
2018-11-12T18:02:52.696Z,7.90
2018-11-12T18:05:22.365Z,7.90
2018-11-12T18:07:51.922Z,7.90
2018-11-12T18:10:21.300Z,7.80
2018-11-12T18:12:50.605Z,7.80
2018-11-12T18:15:21.220Z,7.80
2018-11-12T18:17:50.764Z,7.70
2018-11-12T18:20:24.468Z,7.70
2018-11-12T18:22:54.671Z,7.60
2018-11-12T18:25:24.097Z,7.60
2018-11-12T18:27:54.510Z,7.60
2018-11-12T18:30:25.803Z,7.50
2018-11-12T18:32:56.297Z,7.50
2018-11-12T18:35:26.006Z,7.50
2018-11-12T18:37:55.749Z,7.40
2018-11-12T18:40:27.260Z,7.40
2018-11-12T18:42:56.852Z,7.40
2018-11-12T18:45:28.052Z,7.30
2018-11-12T18:47:58.682Z,7.30
2018-11-12T18:50:29.469Z,7.20
2018-11-12T18:52:59.483Z,7.20
2018-11-12T18:55:29.250Z,7.10
2018-11-12T18:57:59.705Z,7.20
2018-11-12T19:00:29.220Z,7.20
2018-11-12T19:02:59.173Z,7.20
2018-11-12T19:05:30.267Z,7.10
2018-11-12T19:08:02.371Z,7.20
2018-11-12T19:10:33.369Z,7.20
2018-11-12T19:13:02.876Z,7.10
2018-11-12T19:15:34.400Z,7.10
2018-11-12T19:18:06.409Z,7.00
2018-11-12T19:20:36.261Z,6.90
2018-11-12T19:23:06.452Z,6.90
2018-11-12T19:25:36.177Z,7.00
2018-11-12T19:28:06.172Z,6.90
2018-11-12T19:30:35.861Z,6.90
2018-11-12T19:33:06.010Z,6.90
2018-11-12T19:35:35.773Z,6.80
2018-11-12T19:38:05.792Z,6.80
2018-11-12T19:40:35.358Z,6.70
2018-11-12T19:43:04.761Z,6.70
2018-11-12T19:45:34.167Z,6.70
2018-11-12T19:48:04.074Z,6.60
2018-11-12T19:50:34.857Z,6.60
2018-11-12T19:53:05.451Z,6.60
2018-11-12T19:55:35.159Z,6.60
2018-11-12T19:58:05.514Z,6.60
2018-11-12T20:00:35.336Z,6.60
2018-11-12T20:03:05.500Z,6.50
2018-11-12T20:05:35.986Z,6.40
2018-11-12T20:08:05.878Z,6.40
2018-11-12T20:10:35.766Z,6.40
2018-11-12T20:13:05.901Z,6.40
2018-11-12T20:15:35.446Z,6.40
2018-11-12T20:18:05.508Z,6.40
2018-11-12T20:20:35.674Z,6.30
2018-11-12T20:23:05.178Z,6.30
2018-11-12T20:25:35.431Z,6.30
2018-11-12T20:28:05.724Z,6.20
2018-11-12T20:30:38.163Z,6.20
2018-11-12T20:33:08.672Z,6.10
2018-11-12T20:35:38.768Z,6.10
2018-11-12T20:38:08.147Z,6.10
2018-11-12T20:40:37.861Z,6.00
2018-11-12T20:43:07.594Z,6.00
2018-11-12T20:45:37.089Z,5.90
2018-11-12T20:48:06.925Z,5.90
2018-11-12T20:50:36.656Z,5.90
2018-11-12T20:53:07.055Z,5.90
2018-11-12T20:55:36.640Z,6.00
2018-11-12T20:58:06.847Z,6.00
2018-11-12T21:00:36.320Z,5.90
2018-11-12T21:03:06.467Z,5.90
2018-11-12T21:05:35.882Z,5.90
2018-11-12T21:08:05.293Z,5.80
2018-11-12T21:10:34.674Z,5.80
2018-11-12T21:13:04.241Z,5.80
2018-11-12T21:15:34.149Z,5.70
2018-11-12T21:18:03.547Z,5.80
2018-11-12T21:20:32.820Z,5.80
2018-11-12T21:23:02.208Z,5.70
2018-11-12T21:25:31.501Z,5.70
2018-11-12T21:28:00.888Z,5.70
2018-11-12T21:30:30.778Z,5.70
2018-11-12T21:33:00.382Z,5.70
2018-11-12T21:35:30.411Z,5.60
2018-11-12T21:38:00.600Z,5.60
2018-11-12T21:40:30.328Z,5.60
2018-11-12T21:43:00.369Z,5.60
2018-11-12T21:45:31.000Z,5.60
2018-11-12T21:48:01.114Z,5.60
2018-11-12T21:50:30.915Z,5.60
2018-11-12T21:53:00.501Z,5.50
2018-11-12T21:55:30.268Z,5.50
2018-11-12T21:58:00.130Z,5.40
2018-11-12T22:00:30.930Z,5.40
2018-11-12T22:03:02.630Z,5.40
2018-11-12T22:05:33.386Z,5.30
2018-11-12T22:08:04.396Z,5.30
2018-11-12T22:10:34.943Z,5.30
2018-11-12T22:13:05.238Z,5.40
2018-11-12T22:15:34.986Z,5.40
2018-11-12T22:18:04.979Z,5.30
2018-11-12T22:20:34.903Z,5.40
2018-11-12T22:23:05.013Z,5.40
2018-11-12T22:25:34.800Z,5.40
2018-11-12T22:28:04.586Z,5.40
2018-11-12T22:30:34.027Z,5.40
2018-11-12T22:33:03.436Z,5.60
2018-11-12T22:35:32.819Z,5.70
2018-11-12T22:38:02.241Z,5.70
2018-11-12T22:40:31.507Z,5.70
2018-11-12T22:43:00.820Z,5.60
2018-11-12T22:45:30.218Z,5.50
2018-11-12T22:47:59.560Z,5.40
2018-11-12T22:50:28.954Z,5.30
2018-11-12T22:52:58.208Z,5.30
2018-11-12T22:55:27.617Z,5.30
2018-11-12T22:57:56.975Z,5.30
2018-11-12T23:00:28.152Z,5.20
2018-11-12T23:02:58.253Z,5.20
2018-11-12T23:05:27.653Z,5.20
2018-11-12T23:07:57.272Z,5.30
2018-11-12T23:10:26.596Z,5.30
2018-11-12T23:12:56.031Z,5.30
2018-11-12T23:15:25.471Z,5.40
2018-11-12T23:17:54.896Z,5.30
2018-11-12T23:20:25.539Z,5.40
2018-11-12T23:22:54.941Z,5.40
2018-11-12T23:25:24.321Z,5.30
2018-11-12T23:27:54.151Z,5.20
2018-11-12T23:30:24.721Z,5.10
2018-11-12T23:32:54.124Z,5.00
2018-11-12T23:35:24.838Z,4.90
2018-11-12T23:37:54.269Z,4.90
2018-11-12T23:40:23.675Z,4.80
2018-11-12T23:42:53.611Z,4.90
2018-11-12T23:45:22.981Z,4.90
2018-11-12T23:47:52.349Z,5.00
2018-11-12T23:50:22.737Z,5.10
2018-11-12T23:52:52.997Z,5.00
2018-11-12T23:55:22.661Z,4.90
2018-11-12T23:57:52.254Z,4.90
